Bailey, Colorado
Current Conditions -  °F | °C
As of 11:34 AM on Friday 28 Nov 2014 (Local Time) from K4BM Reporting Station
Clear Clear  
Wind Chill: 41°   Ceiling: Unl
Heat Index: 46°   Visibility: 10mi
Dew Point: -4°   Wind: 12mph
Humidity: 12%   Direction: 260°W
Pressure: 30.21"   Gusts: 30mph
Location:  39.41°N, 105.47°W
Report Text: K4BM 281834Z AUTO 26010G26KT 230V300 10SM CLR 08/M20 A3021 RMK AO2
Loading
Personal Weather Stations






























Interactive Weather Map New forecast layout! Learn more

10-Day Weather Forecast

Advertisements
Track Severe Weather on mobile